Time;durP1;ratioP1;P1;durP2;ratioP2;P2;SDS_P1;SDS_P2;PMS_P1;PMS_P2;Temp;Humidity;BMP_temperature;BMP_pressure;BME280_temperature;BME280_humidity;BME280_pressure;Samples;Min_cycle;Max_cycle;Signal;HPM_P1;HPM_P2
2021/06/20 00:00:32;;;;;;;3.90;2.70;;;;;;;23.73;51.15;100189.28;5026176;28;20068;-84
2021/06/20 00:02:59;;;;;;;2.17;2.08;;;;;;;23.70;50.75;100186.84;5032729;28;20101;-84
2021/06/20 00:05:35;;;;;;;2.20;2.10;;;;;;;23.69;51.15;100174.44;5031102;28;20057;-82
2021/06/20 00:08:25;;;;;;;3.17;2.40;;;;;;;23.66;51.76;100157.75;5040713;28;20072;-85
2021/06/20 00:10:54;;;;;;;2.90;2.55;;;;;;;23.64;51.32;100157.88;5003606;28;20565;-84
2021/06/20 00:13:26;;;;;;;2.85;2.65;;;;;;;23.62;51.39;100155.31;5014315;28;20045;-84
2021/06/20 00:16:05;;;;;;;3.50;2.70;;;;;;;23.61;51.85;100156.28;5008863;28;20289;-84
2021/06/20 00:18:32;;;;;;;2.30;2.20;;;;;;;23.62;51.28;100151.78;5028015;28;20761;-84
2021/06/20 00:21:01;;;;;;;2.72;2.53;;;;;;;23.63;51.36;100158.84;5024310;28;20037;-83
2021/06/20 00:23:28;;;;;;;2.63;2.53;;;;;;;23.62;51.67;100158.00;5008913;28;20056;-83
2021/06/20 00:25:55;;;;;;;5.65;2.78;;;;;;;23.61;51.81;100156.28;5021463;28;20045;-84
2021/06/20 00:28:22;;;;;;;2.20;2.10;;;;;;;23.62;51.51;100152.66;5012963;28;20046;-84
2021/06/20 00:30:52;;;;;;;2.35;2.25;;;;;;;23.64;51.66;100143.66;4998570;28;20661;-84
2021/06/20 00:33:19;;;;;;;3.10;2.90;;;;;;;23.62;51.81;100143.75;5038763;28;20056;-83
2021/06/20 00:35:46;;;;;;;5.40;2.50;;;;;;;23.59;52.22;100139.50;5008995;28;20042;-84
2021/06/20 00:38:13;;;;;;;2.38;2.28;;;;;;;23.58;52.31;100151.16;5015516;28;20033;-83
2021/06/20 00:40:41;;;;;;;4.03;2.67;;;;;;;23.56;52.64;100176.28;5022295;28;20054;-85
2021/06/20 00:43:09;;;;;;;3.22;3.00;;;;;;;23.51;52.75;100165.91;5021946;28;20046;-84
2021/06/20 00:45:37;;;;;;;5.95;2.83;;;;;;;23.50;52.69;100195.41;5011609;28;20493;-83
2021/06/20 00:48:05;;;;;;;3.13;2.78;;;;;;;23.46;52.86;100195.59;5024471;28;20054;-83
2021/06/20 00:50:32;;;;;;;3.90;2.88;;;;;;;23.44;53.25;100200.22;5025910;28;20046;-85
2021/06/20 00:53:04;;;;;;;6.20;2.83;;;;;;;23.42;53.00;100194.13;5022182;28;20049;-84
2021/06/20 00:55:37;;;;;;;2.40;2.20;;;;;;;23.39;53.34;100186.31;5003552;28;20862;-85
2021/06/20 00:58:08;;;;;;;2.85;2.65;;;;;;;23.39;53.47;100181.00;5031070;28;20064;-84
2021/06/20 01:00:37;;;;;;;3.30;2.50;;;;;;;23.39;53.40;100181.00;5027473;28;20068;-82
2021/06/20 01:03:07;;;;;;;2.50;2.40;;;;;;;23.38;53.54;100183.78;5030916;28;20277;-84
2021/06/20 01:05:34;;;;;;;2.55;2.45;;;;;;;23.36;53.56;100178.53;5030724;28;20057;-85
2021/06/20 01:08:01;;;;;;;3.47;2.58;;;;;;;23.37;53.49;100168.69;5033669;28;20041;-82
2021/06/20 01:10:36;;;;;;;2.83;2.60;;;;;;;23.37;53.41;100172.22;5021567;28;20068;-86
2021/06/20 01:13:06;;;;;;;2.97;2.80;;;;;;;23.37;53.83;100176.72;5016934;28;20401;-83
2021/06/20 01:15:40;;;;;;;3.05;2.75;;;;;;;23.38;53.45;100165.91;5021070;28;20049;-85
2021/06/20 01:18:10;;;;;;;2.95;2.72;;;;;;;23.38;53.38;100159.75;5037096;28;20507;-85
2021/06/20 01:20:37;;;;;;;3.13;2.83;;;;;;;23.38;53.97;100146.38;5039798;28;20057;-84
2021/06/20 01:23:07;;;;;;;5.57;2.85;;;;;;;23.37;53.80;100128.63;5012491;28;20118;-85
2021/06/20 01:25:37;;;;;;;4.50;3.90;;;;;;;23.37;54.10;100126.81;5037461;28;20053;-84
2021/06/20 01:28:09;;;;;;;4.03;3.42;;;;;;;23.37;54.49;100123.31;5013901;28;20041;-86
2021/06/20 01:30:39;;;;;;;5.43;2.88;;;;;;;23.36;54.41;100119.78;5020954;28;20045;-84
2021/06/20 01:33:15;;;;;;;3.58;3.28;;;;;;;23.36;54.76;100133.13;5027670;28;20048;-84
2021/06/20 01:35:42;;;;;;;4.30;3.40;;;;;;;23.33;54.71;100129.81;5011782;28;20065;-85
2021/06/20 01:38:10;;;;;;;2.88;2.60;;;;;;;23.33;54.50;100121.81;5025785;28;20045;-83
2021/06/20 01:40:39;;;;;;;3.13;2.85;;;;;;;23.33;54.84;100121.81;5013503;28;20502;-83
2021/06/20 01:43:07;;;;;;;3.20;2.90;;;;;;;23.34;54.43;100120.84;5038618;28;20435;-83
2021/06/20 01:45:36;;;;;;;4.18;2.92;;;;;;;23.33;55.09;100113.81;5021912;28;20053;-83
2021/06/20 01:48:03;;;;;;;3.45;2.90;;;;;;;23.31;54.81;100108.56;5035798;28;20048;-85
2021/06/20 01:50:31;;;;;;;2.50;2.30;;;;;;;23.29;54.91;100103.31;5009970;28;20329;-83
2021/06/20 01:53:16;;;;;;;4.45;2.70;;;;;;;23.27;55.23;100096.38;5026367;28;20164;-84
2021/06/20 01:55:47;;;;;;;3.00;2.80;;;;;;;23.26;54.77;100095.53;5005655;28;20096;-83
2021/06/20 01:58:21;;;;;;;2.80;2.45;;;;;;;23.27;54.90;100093.72;5028600;28;21113;-83
2021/06/20 02:00:52;;;;;;;2.70;2.50;;;;;;;23.28;54.87;100080.28;5008369;28;20124;-86
2021/06/20 02:03:25;;;;;;;6.28;3.58;;;;;;;23.28;54.88;100079.41;5027446;28;20034;-83
2021/06/20 02:05:56;;;;;;;2.55;2.45;;;;;;;23.31;54.78;100067.66;5007827;28;20045;-83
2021/06/20 02:08:24;;;;;;;2.30;2.20;;;;;;;23.33;54.70;100058.56;5010337;28;20045;-85
2021/06/20 02:11:02;;;;;;;2.47;2.33;;;;;;;23.36;54.91;100045.00;5032797;28;20114;-83
2021/06/20 02:13:32;;;;;;;2.80;2.60;;;;;;;23.36;55.16;100036.13;5006902;28;20147;-84
2021/06/20 02:16:00;;;;;;;4.88;2.90;;;;;;;23.33;55.99;100023.84;5025574;28;20060;-86
2021/06/20 02:18:27;;;;;;;3.15;2.80;;;;;;;23.31;56.34;100016.91;5026039;28;20061;-84
2021/06/20 02:20:55;;;;;;;3.50;3.05;;;;;;;23.28;56.94;100028.66;5013318;28;20148;-82
2021/06/20 02:23:23;;;;;;;3.92;3.03;;;;;;;23.21;57.67;100022.09;5011042;28;20112;-85
2021/06/20 02:25:49;;;;;;;3.03;2.83;;;;;;;23.17;57.82;100028.59;5022812;28;20111;-84
2021/06/20 02:28:16;;;;;;;3.88;3.55;;;;;;;23.12;58.05;100035.06;5007025;28;20527;-85
2021/06/20 02:30:43;;;;;;;3.80;3.45;;;;;;;23.09;58.99;100037.13;5032674;28;20494;-85
2021/06/20 02:33:10;;;;;;;4.88;3.33;;;;;;;23.06;59.46;100032.88;5008816;28;20093;-85
2021/06/20 02:35:36;;;;;;;3.38;3.10;;;;;;;22.96;60.51;100031.81;5028881;28;20045;-84
2021/06/20 02:38:03;;;;;;;4.65;3.70;;;;;;;22.89;60.66;100036.72;5031655;28;20061;-83
2021/06/20 02:40:35;;;;;;;3.65;3.03;;;;;;;22.78;61.18;100047.28;5025843;28;20076;-85
2021/06/20 02:43:02;;;;;;;3.05;2.85;;;;;;;22.70;61.90;100093.19;4993014;28;20046;-85
2021/06/20 02:45:29;;;;;;;3.97;3.33;;;;;;;22.56;64.63;100219.50;5022792;28;20065;-82
2021/06/20 02:47:57;;;;;;;2.95;2.75;;;;;;;22.22;66.24;100236.81;5013804;28;20057;-83
2021/06/20 02:50:24;;;;;;;4.15;2.40;;;;;;;22.01;66.89;100257.72;5031196;28;20049;-83
2021/06/20 02:52:51;;;;;;;4.15;2.13;;;;;;;21.68;69.83;100280.16;5014244;28;20120;-83
2021/06/20 02:55:18;;;;;;;6.82;2.20;;;;;;;21.31;71.45;100278.78;5027372;28;20404;-86
2021/06/20 02:57:46;;;;;;;8.13;1.95;;;;;;;20.98;75.62;100294.94;5029410;28;20052;-85
2021/06/20 03:00:21;;;;;;;4.40;1.40;;;;;;;19.65;83.14;100316.28;5011777;28;20037;-85
2021/06/20 03:02:48;;;;;;;8.02;1.80;;;;;;;19.17;87.98;100310.75;5010743;28;20046;-85
2021/06/20 03:05:14;;;;;;;3.47;1.73;;;;;;;18.82;90.55;100278.03;5025931;28;20061;-85
2021/06/20 03:07:42;;;;;;;3.10;1.10;;;;;;;18.72;90.90;100255.53;4993663;28;20061;-88
2021/06/20 03:10:10;;;;;;;4.78;1.25;;;;;;;18.64;90.73;100253.25;5024381;28;20143;-86
2021/06/20 03:12:39;;;;;;;2.97;1.33;;;;;;;18.55;91.84;100230.75;5025902;28;20049;-86
2021/06/20 03:15:07;;;;;;;3.80;0.95;;;;;;;18.52;91.46;100250.31;5003907;28;20132;-87
2021/06/20 03:17:34;;;;;;;2.97;0.90;;;;;;;18.54;91.10;100244.91;5027781;28;20044;-87
2021/06/20 03:20:01;;;;;;;2.38;0.93;;;;;;;18.59;91.53;100247.31;5005777;28;20042;-87
2021/06/20 03:22:28;;;;;;;1.98;0.70;;;;;;;18.54;92.25;100229.00;5020011;28;20049;-87
2021/06/20 03:24:54;;;;;;;5.30;1.27;;;;;;;18.41;93.78;100244.66;4997108;28;20056;-88
2021/06/20 03:27:22;;;;;;;6.13;1.20;;;;;;;18.40;94.71;100220.88;5010494;28;20060;-88
2021/06/20 03:29:50;;;;;;;6.97;1.70;;;;;;;18.50;94.29;100203.59;5023574;28;20367;-87
2021/06/20 03:32:21;;;;;;;4.18;1.08;;;;;;;18.47;93.33;100201.06;5005362;28;20132;-87
2021/06/20 03:34:49;;;;;;;6.20;1.20;;;;;;;18.41;93.75;100182.81;5012076;28;20042;-88
2021/06/20 03:37:17;;;;;;;5.35;1.60;;;;;;;18.37;94.37;100138.88;5023902;28;20073;-87
2021/06/20 03:39:44;;;;;;;2.92;1.50;;;;;;;18.39;94.15;100140.50;5019948;28;20041;-87
2021/06/20 03:42:11;;;;;;;4.47;1.52;;;;;;;18.46;94.12;100173.72;5026165;28;20117;-87
2021/06/20 03:44:38;;;;;;;5.38;1.70;;;;;;;18.57;94.77;100149.34;5024237;28;20052;-87
2021/06/20 03:47:06;;;;;;;5.53;1.88;;;;;;;18.61;94.17;100127.03;5028808;28;20087;-87
2021/06/20 03:49:36;;;;;;;5.20;2.03;;;;;;;18.70;94.29;100177.88;5017558;28;20057;-86
2021/06/20 03:52:04;;;;;;;7.18;2.10;;;;;;;18.68;94.22;100192.06;5008651;28;20069;-88
2021/06/20 03:54:49;;;;;;;4.40;1.38;;;;;;;18.68;94.45;100201.78;5011636;28;20045;-86
2021/06/20 03:57:17;;;;;;;4.22;1.55;;;;;;;18.63;94.46;100204.69;5024325;28;20045;-87
2021/06/20 03:59:44;;;;;;;5.45;1.10;;;;;;;18.61;94.25;100248.13;5044108;28;20122;-86
2021/06/20 04:02:11;;;;;;;3.45;1.30;;;;;;;18.66;94.91;100277.91;5014323;28;20054;-86
2021/06/20 04:04:40;;;;;;;7.55;2.47;;;;;;;18.61;95.33;100307.28;5009992;28;20056;-87
2021/06/20 04:07:08;;;;;;;7.03;1.65;;;;;;;18.52;95.39;100299.78;5020547;28;20520;-86
2021/06/20 04:09:37;;;;;;;6.22;2.13;;;;;;;18.49;95.88;100292.84;5009394;28;20046;-88
2021/06/20 04:12:05;;;;;;;6.15;1.85;;;;;;;18.53;96.04;100277.66;5012095;28;20041;-88
2021/06/20 04:14:39;;;;;;;21.10;3.45;;;;;;;18.34;99.31;100310.34;5034557;28;20149;-89
2021/06/20 04:20:00;;;;;;;8.07;2.78;;;;;;;18.11;100.00;100246.97;5024711;28;20073;-88
2021/06/20 04:22:28;;;;;;;5.53;2.25;;;;;;;18.10;100.00;100149.91;5024236;28;20627;-89
2021/06/20 04:25:20;;;;;;;4.40;2.55;;;;;;;18.15;100.00;100111.66;5024929;28;20044;-89
2021/06/20 04:27:53;;;;;;;5.93;2.15;;;;;;;18.19;100.00;100099.97;5010742;28;20058;-88
2021/06/20 04:30:31;;;;;;;4.63;2.58;;;;;;;18.22;100.00;100067.16;5028805;28;20060;-90
2021/06/20 04:33:08;;;;;;;3.47;2.33;;;;;;;18.22;100.00;100053.91;5028035;28;20051;-87
2021/06/20 04:35:37;;;;;;;7.03;2.65;;;;;;;18.20;100.00;100045.22;5014673;28;20052;-91
2021/06/20 04:38:05;;;;;;;5.82;2.17;;;;;;;18.21;100.00;100043.41;5014964;28;20053;-90
2021/06/20 04:40:34;;;;;;;5.60;2.33;;;;;;;18.23;100.00;100042.38;5006432;28;20442;-89
2021/06/20 04:43:10;;;;;;;6.65;2.95;;;;;;;18.24;100.00;100036.16;5024684;28;20045;-89
2021/06/20 04:45:44;;;;;;;5.53;2.80;;;;;;;18.29;100.00;100031.50;5012984;28;20389;-88
2021/06/20 04:48:11;;;;;;;6.35;2.45;;;;;;;18.21;100.00;100044.25;5018219;28;20144;-88
2021/06/20 04:50:38;;;;;;;5.93;2.60;;;;;;;18.13;100.00;100054.38;5017001;28;20041;-89
2021/06/20 04:53:06;;;;;;;9.60;3.40;;;;;;;18.14;100.00;100048.16;5021984;28;20054;-90
2021/06/20 04:55:33;;;;;;;9.88;2.88;;;;;;;18.15;100.00;100055.19;5013319;28;20096;-91
2021/06/20 04:58:01;;;;;;;8.77;3.35;;;;;;;18.14;100.00;100056.94;5017385;28;20180;-90
2021/06/20 05:00:29;;;;;;;7.40;2.92;;;;;;;18.13;100.00;100051.72;5027467;28;20050;-89
2021/06/20 05:03:03;;;;;;;6.80;3.00;;;;;;;18.11;100.00;100035.94;5015719;28;20128;-89
2021/06/20 05:05:34;;;;;;;9.90;2.70;;;;;;;18.06;100.00;100030.00;5025818;28;20069;-88
2021/06/20 05:08:05;;;;;;;9.63;3.70;;;;;;;18.08;100.00;100019.31;5040500;28;20052;-89
2021/06/20 05:10:33;;;;;;;13.23;3.80;;;;;;;18.13;100.00;100018.16;5043540;28;20103;-88
2021/06/20 05:13:03;;;;;;;10.45;3.75;;;;;;;18.14;100.00;100042.84;5022166;28;20472;-88
2021/06/20 05:15:30;;;;;;;10.43;3.63;;;;;;;18.18;100.00;100055.00;5027031;28;20105;-89
2021/06/20 05:18:04;;;;;;;10.63;3.65;;;;;;;18.23;100.00;100068.88;5037289;28;20076;-89
2021/06/20 05:20:31;;;;;;;9.25;3.53;;;;;;;18.27;100.00;100080.19;5027230;28;20049;-90
2021/06/20 05:22:57;;;;;;;14.18;3.92;;;;;;;18.31;100.00;100077.28;5012093;28;20049;-86
2021/06/20 05:25:24;;;;;;;7.15;3.35;;;;;;;18.27;100.00;100078.38;5023479;28;20493;-88
2021/06/20 05:27:51;;;;;;;7.90;3.70;;;;;;;18.28;100.00;100074.81;5024417;28;20169;-89
2021/06/20 05:30:19;;;;;;;11.20;3.90;;;;;;;18.37;100.00;100086.75;5010561;28;20052;-88
2021/06/20 05:32:49;;;;;;;9.75;3.65;;;;;;;18.41;100.00;100080.34;5040416;28;20073;-88
2021/06/20 05:35:18;;;;;;;12.20;3.78;;;;;;;18.45;100.00;100071.31;5009169;28;20042;-87
2021/06/20 05:37:46;;;;;;;11.48;3.72;;;;;;;18.49;100.00;100070.19;5009377;28;20040;-86
2021/06/20 05:40:13;;;;;;;14.32;3.78;;;;;;;18.52;100.00;100078.03;5028536;28;20037;-87
2021/06/20 05:42:41;;;;;;;10.55;3.35;;;;;;;18.63;100.00;100088.06;5025475;28;20479;-86
2021/06/20 05:45:11;;;;;;;8.90;2.83;;;;;;;18.72;100.00;100084.09;5031777;28;20058;-85
2021/06/20 05:47:38;;;;;;;11.05;3.60;;;;;;;18.78;100.00;100091.69;5045095;28;20081;-88
2021/06/20 05:50:08;;;;;;;7.20;3.40;;;;;;;18.87;100.00;100097.47;5014119;28;20076;-86
2021/06/20 05:52:36;;;;;;;10.82;3.42;;;;;;;18.89;100.00;100098.22;5026306;28;20057;-87
2021/06/20 05:55:04;;;;;;;10.85;3.05;;;;;;;18.92;100.00;100101.63;5015355;28;20057;-88
2021/06/20 05:57:31;;;;;;;12.13;4.45;;;;;;;18.99;100.00;100103.03;4994968;28;20052;-86
2021/06/20 06:00:00;;;;;;;11.52;3.20;;;;;;;19.05;100.00;100088.56;5023576;28;20048;-86
2021/06/20 06:02:32;;;;;;;11.50;4.10;;;;;;;19.15;100.00;100099.53;5009481;28;20056;-86
2021/06/20 06:04:59;;;;;;;9.23;3.42;;;;;;;19.26;100.00;100104.28;5028965;28;20049;-86
2021/06/20 06:07:25;;;;;;;10.90;3.97;;;;;;;19.38;100.00;100102.75;5011921;28;20129;-86
2021/06/20 06:09:52;;;;;;;8.63;4.03;;;;;;;19.47;100.00;100099.59;5012542;28;20284;-86
2021/06/20 06:12:23;;;;;;;11.73;3.67;;;;;;;19.55;100.00;100107.97;5020311;28;20076;-86
2021/06/20 06:14:55;;;;;;;8.88;2.95;;;;;;;19.64;100.00;100106.63;5018899;28;20071;-86
2021/06/20 06:17:24;;;;;;;4.60;3.22;;;;;;;19.69;100.00;100107.22;5015486;28;20132;-88
2021/06/20 06:19:53;;;;;;;6.43;3.70;;;;;;;19.73;100.00;100111.41;5026788;28;20597;-87
2021/06/20 06:22:22;;;;;;;7.53;3.45;;;;;;;19.80;100.00;100117.22;5037661;28;20049;-88
2021/06/20 06:24:50;;;;;;;9.35;4.10;;;;;;;19.85;100.00;100117.88;5031655;28;20053;-88
2021/06/20 06:27:18;;;;;;;6.30;3.17;;;;;;;19.88;100.00;100116.84;5015323;28;20210;-86
2021/06/20 06:29:45;;;;;;;6.80;3.25;;;;;;;19.93;100.00;100120.09;5051369;28;20176;-86
2021/06/20 06:32:12;;;;;;;10.98;3.80;;;;;;;20.00;100.00;100124.13;5024894;28;20053;-87
2021/06/20 06:34:39;;;;;;;4.32;2.90;;;;;;;20.06;100.00;100120.25;5027581;28;20067;-86
2021/06/20 06:37:08;;;;;;;6.88;3.22;;;;;;;20.15;100.00;100127.69;5011062;28;20049;-86
2021/06/20 06:39:35;;;;;;;7.07;2.55;;;;;;;20.18;100.00;100114.25;5018720;28;20053;-86
2021/06/20 06:42:02;;;;;;;7.32;2.95;;;;;;;20.25;100.00;100120.91;5015982;28;20056;-88
2021/06/20 06:47:11;;;;;;;9.65;3.08;;;;;;;20.39;100.00;100133.41;5032466;28;20132;-87
2021/06/20 06:49:38;;;;;;;6.28;2.47;;;;;;;20.47;100.00;100136.47;5030120;28;20053;-87
2021/06/20 06:52:05;;;;;;;6.13;3.17;;;;;;;20.59;100.00;100134.88;5031146;28;20109;-87
2021/06/20 06:54:32;;;;;;;5.50;3.00;;;;;;;20.81;100.00;100134.47;5027711;28;20081;-87
2021/06/20 06:56:58;;;;;;;7.45;3.15;;;;;;;21.09;100.00;100132.81;5017464;28;20038;-87
2021/06/20 06:59:25;;;;;;;6.95;2.85;;;;;;;21.30;99.80;100133.28;5026735;28;20054;-87
2021/06/20 07:01:55;;;;;;;12.10;4.65;;;;;;;21.51;99.33;100129.38;5005065;28;20046;-86
2021/06/20 07:04:22;;;;;;;7.18;2.47;;;;;;;21.66;97.79;100133.75;5005300;28;20056;-87
2021/06/20 07:06:48;;;;;;;6.97;3.15;;;;;;;21.76;93.57;100121.56;5023655;28;20061;-86
2021/06/20 07:09:15;;;;;;;7.93;3.13;;;;;;;21.90;93.63;100136.66;5040966;28;20041;-86
2021/06/20 07:11:42;;;;;;;3.22;2.33;;;;;;;22.06;92.82;100136.53;5011923;28;20060;-86
2021/06/20 07:14:08;;;;;;;6.47;2.83;;;;;;;22.19;91.76;100138.38;5011905;28;20050;-87
2021/06/20 07:16:35;;;;;;;4.88;2.97;;;;;;;22.33;89.06;100137.47;5010670;28;20133;-84
2021/06/20 07:19:02;;;;;;;5.45;2.95;;;;;;;22.48;87.66;100135.63;5007974;28;20054;-84
2021/06/20 07:21:30;;;;;;;5.47;2.85;;;;;;;22.67;86.35;100137.88;5023658;28;20547;-85
2021/06/20 07:23:57;;;;;;;3.67;2.55;;;;;;;22.78;86.73;100140.69;5007817;28;20108;-87
2021/06/20 07:26:25;;;;;;;3.60;2.50;;;;;;;22.93;85.23;100138.75;5008595;28;20038;-85
2021/06/20 07:28:52;;;;;;;7.10;3.08;;;;;;;23.13;80.53;100137.41;5009367;28;20160;-86
2021/06/20 07:31:19;;;;;;;4.57;2.70;;;;;;;23.33;78.38;100137.84;5018095;28;20056;-86
2021/06/20 07:33:48;;;;;;;4.93;2.67;;;;;;;23.59;77.18;100126.13;4986127;28;20111;-86
2021/06/20 07:36:17;;;;;;;5.57;2.42;;;;;;;23.89;75.83;100124.03;5004887;28;20049;-87
2021/06/20 07:38:48;;;;;;;8.03;2.50;;;;;;;24.21;74.55;100123.47;5024782;28;20061;-88
2021/06/20 07:41:16;;;;;;;5.53;2.72;;;;;;;24.44;73.02;100127.97;5024273;28;20064;-85
2021/06/20 07:43:43;;;;;;;6.43;3.15;;;;;;;24.70;70.26;100126.97;5005543;28;20408;-85
2021/06/20 07:46:10;;;;;;;4.85;2.50;;;;;;;24.94;68.99;100129.59;5027961;28;20124;-86
2021/06/20 07:48:41;;;;;;;4.15;2.10;;;;;;;25.20;66.35;100132.00;5020825;28;20546;-84
2021/06/20 07:51:07;;;;;;;2.92;1.90;;;;;;;25.45;66.49;100149.72;5010948;28;20611;-86
2021/06/20 07:53:34;;;;;;;6.15;2.72;;;;;;;25.81;65.16;100145.03;5008693;28;20053;-85
2021/06/20 07:56:01;;;;;;;8.98;2.97;;;;;;;26.03;63.28;100151.34;5042364;28;20103;-85
2021/06/20 07:58:29;;;;;;;3.03;2.67;;;;;;;26.24;62.48;100148.72;5023828;28;20498;-85
2021/06/20 08:00:55;;;;;;;5.80;2.42;;;;;;;26.58;60.60;100153.94;5023500;28;20436;-85
2021/06/20 08:03:22;;;;;;;5.28;2.97;;;;;;;26.89;59.95;100162.97;5023788;28;20046;-85
2021/06/20 08:05:49;;;;;;;4.35;2.05;;;;;;;27.28;57.56;100161.50;5022581;28;20618;-85
2021/06/20 08:08:23;;;;;;;4.65;2.08;;;;;;;27.47;56.71;100161.63;5006830;28;20047;-85
2021/06/20 08:10:56;;;;;;;5.07;2.88;;;;;;;27.90;56.04;100165.84;5021061;28;20046;-84
2021/06/20 08:13:23;;;;;;;7.15;2.10;;;;;;;27.66;55.26;100168.88;5008076;28;20484;-84
2021/06/20 08:15:50;;;;;;;4.53;2.05;;;;;;;27.51;56.44;100178.34;5031776;28;20054;-83
2021/06/20 08:18:17;;;;;;;3.95;2.22;;;;;;;27.93;54.97;100166.56;5007821;28;20041;-84
2021/06/20 08:20:44;;;;;;;3.83;2.22;;;;;;;28.49;53.37;100182.09;4991923;28;20041;-86
2021/06/20 08:23:12;;;;;;;4.75;2.50;;;;;;;28.95;50.85;100179.66;5028219;28;20455;-86
2021/06/20 08:25:39;;;;;;;2.80;2.33;;;;;;;28.60;51.23;100174.84;5030409;28;20052;-84
2021/06/20 08:28:08;;;;;;;4.95;2.17;;;;;;;28.07;50.67;100179.66;5026733;28;20037;-84
2021/06/20 08:30:37;;;;;;;5.30;1.75;;;;;;;27.21;52.05;100199.66;5029393;28;20041;-85
2021/06/20 08:33:05;;;;;;;2.63;2.10;;;;;;;27.06;52.83;100188.41;5023140;28;20064;-85
2021/06/20 08:35:33;;;;;;;2.92;1.85;;;;;;;26.89;52.11;100191.66;5005385;28;20049;-84
2021/06/20 08:38:02;;;;;;;4.00;2.33;;;;;;;27.32;52.01;100197.88;5028308;28;20562;-86
2021/06/20 08:40:29;;;;;;;3.42;2.10;;;;;;;28.09;49.97;100201.88;5025074;28;20055;-85
2021/06/20 08:42:59;;;;;;;2.90;2.17;;;;;;;28.39;48.56;100203.63;4999928;28;20050;-85
2021/06/20 08:45:28;;;;;;;2.20;1.70;;;;;;;28.38;48.08;100198.38;5008328;28;20049;-87
2021/06/20 08:47:58;;;;;;;3.72;1.98;;;;;;;28.02;49.37;100201.56;5016260;28;20173;-86
2021/06/20 08:50:25;;;;;;;3.83;2.55;;;;;;;27.31;51.14;100207.78;5014984;28;20041;-86
2021/06/20 08:53:03;;;;;;;3.05;2.63;;;;;;;27.02;52.57;100218.34;5024887;28;20045;-86
2021/06/20 08:55:31;;;;;;;3.25;2.10;;;;;;;27.39;51.58;100215.16;5023553;28;20069;-86
2021/06/20 08:58:19;;;;;;;3.38;1.60;;;;;;;27.27;51.65;100213.53;5025228;28;20060;-85
2021/06/20 09:00:59;;;;;;;2.17;1.98;;;;;;;26.89;52.90;100214.00;5031059;28;20049;-85
2021/06/20 09:03:46;;;;;;;3.55;2.60;;;;;;;27.66;50.19;100198.47;5026921;28;20065;-85
2021/06/20 09:06:17;;;;;;;7.80;2.67;;;;;;;28.37;48.87;100205.59;5021626;28;20149;-84
2021/06/20 09:09:00;;;;;;;3.20;1.92;;;;;;;28.09;49.32;100211.78;5019941;28;20069;-86
2021/06/20 09:11:37;;;;;;;2.40;2.00;;;;;;;27.67;50.27;100219.00;5000291;28;20149;-87
2021/06/20 09:14:16;;;;;;;4.40;2.42;;;;;;;27.88;49.95;100213.53;5032252;28;20057;-85
2021/06/20 09:16:56;;;;;;;3.53;1.83;;;;;;;28.65;48.31;100216.53;5010606;28;20080;-84
2021/06/20 09:19:39;;;;;;;6.43;1.88;;;;;;;29.29;45.03;100214.22;5011626;28;20049;-84
2021/06/20 09:22:10;;;;;;;2.20;1.98;;;;;;;29.28;45.10;100203.56;5023106;28;20050;-87
2021/06/20 09:24:40;;;;;;;2.88;1.95;;;;;;;29.36;44.50;100201.84;5005701;28;20042;-86
2021/06/20 09:27:09;;;;;;;4.38;2.03;;;;;;;29.92;41.91;100203.75;4999944;28;20518;-86
2021/06/20 09:29:39;;;;;;;3.50;1.63;;;;;;;30.01;41.75;100209.13;5021307;28;20045;-86
2021/06/20 09:32:14;;;;;;;2.55;1.83;;;;;;;29.78;42.90;100214.03;5011289;28;20050;-87
2021/06/20 09:34:51;;;;;;;2.78;1.70;;;;;;;30.11;40.92;100210.91;5035871;28;20125;-85
2021/06/20 09:37:22;;;;;;;3.92;1.67;;;;;;;29.97;39.88;100223.06;5019455;28;20075;-83
2021/06/20 09:39:50;;;;;;;2.03;1.85;;;;;;;29.53;41.17;100231.75;5023975;28;20056;-84
2021/06/20 09:42:18;;;;;;;3.67;1.67;;;;;;;29.01;42.45;100232.13;5020471;28;20057;-85
2021/06/20 09:44:57;;;;;;;3.60;1.50;;;;;;;28.65;43.97;100242.59;5013098;28;20503;-86
2021/06/20 09:47:27;;;;;;;3.22;2.00;;;;;;;29.33;43.00;100237.22;5027021;28;20072;-85
2021/06/20 09:49:56;;;;;;;1.65;1.48;;;;;;;28.95;42.16;100219.22;5037726;28;20037;-85
2021/06/20 09:52:33;;;;;;;4.07;2.13;;;;;;;27.86;44.59;100214.66;5036238;28;20128;-86
2021/06/20 09:55:05;;;;;;;2.20;2.05;;;;;;;27.84;45.28;100220.19;5029562;28;20053;-84
2021/06/20 09:57:49;;;;;;;4.13;1.83;;;;;;;27.73;45.69;100213.06;5034159;28;20046;-85
2021/06/20 10:00:17;;;;;;;2.03;1.88;;;;;;;27.60;46.39;100217.84;5030896;28;20127;-85
2021/06/20 10:02:46;;;;;;;2.25;1.95;;;;;;;28.17;44.99;100214.63;5023740;28;20068;-85
2021/06/20 10:05:16;;;;;;;2.80;2.28;;;;;;;29.53;41.68;100202.09;5041232;28;20072;-86
2021/06/20 10:07:43;;;;;;;4.15;1.92;;;;;;;30.86;39.36;100218.75;4989334;28;20060;-85
2021/06/20 10:10:11;;;;;;;5.15;2.08;;;;;;;31.20;38.83;100218.00;5026489;28;20065;-86
2021/06/20 10:12:38;;;;;;;3.78;1.60;;;;;;;31.16;38.23;100212.06;5030415;28;20089;-87
2021/06/20 10:21:07;;;;;;;2.60;1.95;;;;;;;29.86;40.89;100203.34;5033665;28;20045;-84
2021/06/20 10:23:35;;;;;;;2.72;1.90;;;;;;;29.37;41.83;100217.03;5046462;28;20054;-84
2021/06/20 10:26:09;;;;;;;2.60;2.40;;;;;;;28.76;42.78;100217.41;5060172;28;20049;-85
2021/06/20 10:28:39;;;;;;;3.03;1.90;;;;;;;28.55;43.54;100215.66;5043640;28;20052;-85
2021/06/20 10:31:10;;;;;;;2.45;2.00;;;;;;;28.32;44.43;100209.72;5042964;28;20049;-86
2021/06/20 10:33:40;;;;;;;2.05;1.92;;;;;;;27.94;45.54;100216.66;5047437;28;20126;-85
2021/06/20 10:36:10;;;;;;;2.92;1.88;;;;;;;27.61;46.42;100207.94;5035017;28;20025;-85
2021/06/20 10:41:29;;;;;;;2.17;1.90;;;;;;;28.08;45.82;100194.78;5043489;28;20093;-84
2021/06/20 10:44:05;;;;;;;4.38;3.10;;;;;;;28.41;45.85;100192.72;5023329;28;20042;-85
2021/06/20 10:46:39;;;;;;;2.75;1.92;;;;;;;28.63;44.89;100191.59;5020975;28;20053;-85
2021/06/20 10:49:18;;;;;;;2.33;2.10;;;;;;;28.83;44.20;100195.13;5005965;28;20052;-85
2021/06/20 10:51:48;;;;;;;2.43;2.23;;;;;;;28.91;44.08;100191.72;5008586;28;20562;-84
2021/06/20 10:54:30;;;;;;;2.75;2.00;;;;;;;28.87;44.15;100191.16;5010037;28;20064;-85
2021/06/20 10:57:04;;;;;;;3.33;1.90;;;;;;;28.92;43.42;100189.91;5011700;28;20050;-83
2021/06/20 10:59:34;;;;;;;2.65;1.50;;;;;;;30.32;41.01;100195.25;5032585;28;20354;-83
2021/06/20 11:02:00;;;;;;;7.65;2.40;;;;;;;32.21;35.97;100181.25;5031270;28;20092;-85
2021/06/20 11:04:28;;;;;;;3.65;2.20;;;;;;;33.45;33.92;100192.03;5009782;28;20085;-84
2021/06/20 11:06:59;;;;;;;2.78;1.83;;;;;;;34.09;32.34;100177.50;5030126;28;20136;-86
2021/06/20 11:09:47;;;;;;;2.55;2.10;;;;;;;32.90;34.13;100193.69;4994759;28;20064;-85
2021/06/20 11:12:18;;;;;;;4.65;2.03;;;;;;;32.89;34.15;100186.56;5037311;28;20071;-85
2021/06/20 11:14:50;;;;;;;3.13;1.85;;;;;;;32.83;34.33;100179.97;5027133;28;20041;-85
2021/06/20 11:17:17;;;;;;;1.85;1.60;;;;;;;32.31;35.15;100189.22;5005347;28;20080;-84
2021/06/20 11:19:44;;;;;;;1.73;1.58;;;;;;;32.38;33.12;100181.28;5022700;28;20492;-85
2021/06/20 11:24:56;;;;;;;4.57;2.08;;;;;;;35.34;29.79;100198.09;5006578;28;20042;-87
2021/06/20 11:27:26;;;;;;;2.50;1.65;;;;;;;37.09;26.74;100189.94;5029715;28;20053;-84
2021/06/20 11:29:59;;;;;;;;;;;;;;;38.02;25.12;100194.22;5008721;28;20120;-86
2021/06/20 11:32:36;;;;;;;2.40;1.50;;;;;;;37.88;25.67;100196.91;5027616;28;19926;-88
2021/06/20 11:35:16;;;;;;;3.55;1.70;;;;;;;37.65;26.78;100199.09;5007587;28;20050;-86
2021/06/20 11:37:46;;;;;;;3.08;1.58;;;;;;;37.17;27.40;100219.81;5008671;28;20128;-87
2021/06/20 11:40:20;;;;;;;2.10;1.90;;;;;;;35.21;28.91;100219.63;5008024;28;20041;-85
2021/06/20 11:45:37;;;;;;;2.00;1.50;;;;;;;35.63;28.55;100225.50;5025651;28;20046;-87
2021/06/20 11:48:04;;;;;;;1.60;1.42;;;;;;;35.26;29.26;100218.03;5012157;28;20052;-85
2021/06/20 11:50:45;;;;;;;2.60;1.40;;;;;;;34.58;30.97;100226.09;5019271;28;20050;-84
2021/06/20 11:53:12;;;;;;;1.70;1.55;;;;;;;33.63;31.96;100218.97;5019981;28;20107;-85